Time;durP1;ratioP1;P1;durP2;ratioP2;P2;SDS_P1;SDS_P2;PMS_P1;PMS_P2;Temp;Humidity;BMP_temperature;BMP_pressure;BME280_temperature;BME280_humidity;BME280_pressure;Samples;Min_cycle;Max_cycle;Signal;HPM_P1;HPM_P2
2023/01/17 00:00:08;;;;;;;3.50;3.20;;;4.90;1.00;;;;;;5038337;28;20192;-86
2023/01/17 00:02:36;;;;;;;3.17;2.88;;;4.60;99.90;;;;;;5038062;28;20196;-85
2023/01/17 00:10:33;;;;;;;2.60;2.40;;;4.20;1.00;;;;;;5038789;28;20207;-85
2023/01/17 00:13:02;;;;;;;3.05;2.38;;;4.70;1.00;;;;;;5038497;28;20192;-86
2023/01/17 00:15:30;;;;;;;3.70;2.45;;;4.20;1.00;;;;;;5038448;28;20208;-86
2023/01/17 00:17:59;;;;;;;3.08;2.30;;;4.20;1.00;;;;;;5038517;28;20232;-85
2023/01/17 00:26:05;;;;;;;2.85;2.65;;;4.50;1.00;;;;;;5042297;28;20172;-84
2023/01/17 01:35:41;;;;;;;2.72;2.53;;;4.70;1.00;;;;;;5030278;28;20267;-85
2023/01/17 01:38:10;;;;;;;1.98;1.88;;;4.30;55.70;;;;;;5032004;28;20702;-85
2023/01/17 01:40:42;;;;;;;4.40;2.33;;;4.20;1.00;;;;;;5034919;28;20220;-85
2023/01/17 01:43:12;;;;;;;5.97;2.00;;;4.20;56.20;;;;;;5034552;28;20272;-85
2023/01/17 01:45:39;;;;;;;2.17;2.05;;;4.20;74.50;;;;;;5037976;28;20200;-85
2023/01/17 01:48:19;;;;;;;2.60;2.40;;;4.10;58.50;;;;;;5032487;28;20266;-85
2023/01/17 01:50:49;;;;;;;3.28;2.85;;;4.00;91.90;;;;;;5033169;28;20253;-85
2023/01/17 01:53:20;;;;;;;2.38;2.28;;;3.90;1.00;;;;;;5033016;28;20181;-85
2023/01/17 01:55:50;;;;;;;2.05;1.95;;;3.80;25.10;;;;;;5029279;28;20277;-85
2023/01/17 01:58:22;;;;;;;3.83;2.60;;;4.30;1.00;;;;;;5030066;28;20667;-85
2023/01/17 02:00:49;;;;;;;2.65;2.40;;;3.80;1.00;;;;;;5029030;28;20196;-85
2023/01/17 02:03:21;;;;;;;2.78;2.58;;;4.20;1.00;;;;;;5035286;28;20235;-85
2023/01/17 02:05:48;;;;;;;4.47;2.65;;;;;;;;;;5037781;28;20188;-85
2023/01/17 02:08:19;;;;;;;2.60;2.25;;;4.30;1.00;;;;;;5028652;28;20208;-85
2023/01/17 02:10:47;;;;;;;5.55;3.33;;;4.30;1.00;;;;;;5029335;28;20185;-85
2023/01/17 02:13:16;;;;;;;4.15;2.92;;;4.20;1.00;;;;;;5030511;28;20207;-83
2023/01/17 02:15:56;;;;;;;5.25;3.08;;;4.20;1.00;;;;;;5029663;28;20280;-85
2023/01/17 02:18:35;;;;;;;2.30;2.20;;;4.30;1.00;;;;;;5028233;28;20223;-85
2023/01/17 02:21:21;;;;;;;3.22;2.63;;;4.60;1.00;;;;;;5029554;28;20194;-85
2023/01/17 02:24:22;;;;;;;2.70;2.50;;;4.20;1.00;;;;;;5029162;28;20193;-85
2023/01/17 02:27:04;;;;;;;3.85;2.90;;;4.10;1.00;;;;;;4976721;28;20245;-85
2023/01/17 02:30:04;;;;;;;2.80;2.60;;;4.00;1.00;;;;;;5035365;28;20196;-85
2023/01/17 02:32:51;;;;;;;2.40;2.30;;;3.80;1.00;;;;;;5030388;28;20267;-85
2023/01/17 02:35:28;;;;;;;3.80;2.50;;;4.00;1.00;;;;;;5029367;28;20276;-85
2023/01/17 02:38:00;;;;;;;2.63;2.42;;;4.10;1.00;;;;;;5028717;28;20287;-85
2023/01/17 02:40:33;;;;;;;2.65;2.45;;;4.10;99.90;;;;;;5029569;28;20272;-85
2023/01/17 02:43:06;;;;;;;3.22;3.03;;;4.20;1.00;;;;;;5029668;28;20223;-84
2023/01/17 02:45:33;;;;;;;2.80;2.60;;;3.90;1.00;;;;;;5032946;28;20231;-84
2023/01/17 02:48:01;;;;;;;4.28;2.90;;;3.60;1.00;;;;;;5033192;28;20274;-85
2023/01/17 02:50:37;;;;;;;2.47;2.28;;;3.70;1.00;;;;;;5032178;28;20204;-85
2023/01/17 02:53:17;;;;;;;2.65;2.45;;;4.30;1.00;;;;;;5030706;28;20256;-85
2023/01/17 02:55:54;;;;;;;2.97;2.17;;;4.20;99.90;;;;;;5029765;28;20232;-85
2023/01/17 02:58:37;;;;;;;3.08;2.33;;;4.30;1.00;;;;;;5027555;28;20256;-85
2023/01/17 03:01:16;;;;;;;3.15;2.70;;;4.30;1.00;;;;;;5020681;28;20196;-85
2023/01/17 03:03:49;;;;;;;3.72;2.65;;;4.00;1.00;;;;;;5021920;28;20260;-85
2023/01/17 03:06:20;;;;;;;2.95;2.35;;;4.50;1.00;;;;;;5030389;28;20224;-85
2023/01/17 03:08:49;;;;;;;2.47;2.15;;;4.80;1.00;;;;;;5021359;28;20195;-85
2023/01/17 03:11:16;;;;;;;2.58;2.42;;;4.60;1.60;;;;;;5021372;28;20750;-85
2023/01/17 03:13:43;;;;;;;2.63;2.40;;;4.10;53.60;;;;;;5022800;28;20204;-85
2023/01/17 03:16:14;;;;;;;2.72;2.47;;;4.30;1.00;;;;;;5023730;28;20266;-85
2023/01/17 03:18:40;;;;;;;3.00;2.80;;;4.60;99.90;;;;;;5024258;28;20261;-85
2023/01/17 03:21:09;;;;;;;2.65;2.45;;;4.00;1.00;;;;;;5025817;28;20264;-85
2023/01/17 03:23:37;;;;;;;2.42;2.22;;;;;;;;;;5028311;28;20208;-85
2023/01/17 03:26:04;;;;;;;7.32;3.15;;;4.00;1.00;;;;;;5028994;28;20654;-85
2023/01/17 03:28:31;;;;;;;2.72;2.47;;;4.30;99.90;;;;;;5029248;28;20664;-85
2023/01/17 03:30:57;;;;;;;3.20;2.90;;;4.60;1.00;;;;;;5031918;28;20263;-84
2023/01/17 03:33:25;;;;;;;3.55;3.25;;;4.30;99.90;;;;;;5035615;28;20230;-85
2023/01/17 03:35:53;;;;;;;3.10;2.90;;;4.20;1.00;;;;;;5031816;28;20272;-85
2023/01/17 03:38:21;;;;;;;3.70;2.90;;;4.50;1.00;;;;;;5029611;28;20272;-85
2023/01/17 03:40:48;;;;;;;5.65;2.75;;;4.50;1.00;;;;;;5029388;28;20236;-85
2023/01/17 03:43:15;;;;;;;3.00;2.80;;;4.60;1.00;;;;;;5035639;28;20208;-85
2023/01/17 03:45:41;;;;;;;2.50;2.30;;;4.70;1.00;;;;;;5036044;28;20220;-85
2023/01/17 03:48:09;;;;;;;2.92;2.70;;;4.80;1.00;;;;;;5048395;22;20288;-86
2023/01/17 03:50:35;;;;;;;3.90;2.95;;;4.70;1.00;;;;;;5032035;28;20231;-84
2023/01/17 03:53:02;;;;;;;2.75;2.55;;;4.80;1.00;;;;;;5038410;28;20228;-83
2023/01/17 03:55:30;;;;;;;3.35;2.80;;;4.80;1.00;;;;;;5037187;28;20240;-85
2023/01/17 03:57:57;;;;;;;2.97;2.67;;;4.40;1.00;;;;;;5038188;28;20220;-85
2023/01/17 04:00:24;;;;;;;2.47;2.20;;;4.50;99.90;;;;;;5038026;28;20227;-85
2023/01/17 04:02:51;;;;;;;3.10;2.80;;;4.80;1.00;;;;;;5038139;28;20264;-86
2023/01/17 04:05:18;;;;;;;2.80;2.60;;;4.30;1.00;;;;;;5037291;28;20235;-87
2023/01/17 04:07:44;;;;;;;1.98;1.77;;;4.50;1.00;;;;;;5021664;28;20221;-86
2023/01/17 04:10:11;;;;;;;1.92;1.83;;;4.70;99.90;;;;;;5020365;28;20263;-86
2023/01/17 04:12:40;;;;;;;1.92;1.70;;;4.80;1.00;;;;;;5020895;28;20482;-85
2023/01/17 04:15:08;;;;;;;1.75;1.65;;;4.50;1.00;;;;;;5025121;28;20490;-87
2023/01/17 04:17:35;;;;;;;3.83;1.83;;;4.50;99.90;;;;;;5033408;28;20251;-85
2023/01/17 04:20:02;;;;;;;1.30;1.20;;;5.00;99.90;;;;;;5034634;28;20506;-86
2023/01/17 04:22:30;;;;;;;1.60;1.50;;;5.10;99.90;;;;;;5034749;28;20196;-85
2023/01/17 04:24:57;;;;;;;1.27;1.17;;;4.90;99.90;;;;;;5029354;28;20435;-84
2023/01/17 04:27:24;;;;;;;1.60;1.50;;;4.90;99.90;;;;;;5035886;28;20236;-85
2023/01/17 04:29:52;;;;;;;2.00;1.55;;;4.90;99.90;;;;;;5035373;28;20205;-85
2023/01/17 04:32:19;;;;;;;1.50;1.40;;;4.90;99.90;;;;;;5035142;28;20209;-87
2023/01/17 04:34:46;;;;;;;1.17;1.17;;;4.90;99.90;;;;;;5027388;28;20244;-87
2023/01/17 04:37:12;;;;;;;1.73;1.63;;;4.90;99.90;;;;;;5023754;28;20236;-88
2023/01/17 04:39:39;;;;;;;1.70;1.50;;;5.00;99.90;;;;;;5023400;28;20204;-87
2023/01/17 04:42:06;;;;;;;1.48;1.38;;;6.20;1.00;;;;;;5024002;28;20411;-87
2023/01/17 04:44:33;;;;;;;4.68;1.50;;;4.90;99.90;;;;;;5022637;28;20312;-87
2023/01/17 04:47:02;;;;;;;1.85;1.50;;;5.10;99.90;;;;;;5022481;28;20319;-86
2023/01/17 04:49:29;;;;;;;1.55;1.45;;;5.00;9.40;;;;;;5022106;28;20200;-87
2023/01/17 04:51:56;;;;;;;1.38;1.10;;;5.00;1.00;;;;;;5022036;28;20688;-86
2023/01/17 04:54:23;;;;;;;1.30;1.20;;;;;;;;;;5021119;28;20542;-88
2023/01/17 04:56:50;;;;;;;1.30;1.20;;;5.00;1.00;;;;;;5021028;28;21075;-87
2023/01/17 04:59:17;;;;;;;1.58;1.30;;;5.70;99.90;;;;;;5021982;28;20205;-86
2023/01/17 05:01:44;;;;;;;2.65;1.60;;;5.00;1.00;;;;;;5022496;28;20291;-87
2023/01/17 05:04:12;;;;;;;1.70;1.60;;;5.20;99.90;;;;;;5022116;28;20201;-86
2023/01/17 05:06:38;;;;;;;1.00;1.00;;;4.90;94.20;;;;;;5026876;28;20280;-87
2023/01/17 05:09:06;;;;;;;2.55;1.80;;;4.70;10.30;;;;;;5031453;28;20307;-87
2023/01/17 05:11:33;;;;;;;1.40;1.30;;;4.80;1.00;;;;;;5027560;28;20219;-86
2023/01/17 05:13:59;;;;;;;1.80;1.70;;;4.40;1.00;;;;;;5026995;28;20204;-86
2023/01/17 05:16:27;;;;;;;1.95;1.70;;;4.80;99.90;;;;;;5024209;28;20228;-86
2023/01/17 05:18:54;;;;;;;1.60;1.50;;;4.70;99.90;;;;;;5026897;28;20204;-86
2023/01/17 05:21:23;;;;;;;2.00;1.90;;;;;;;;;;5028833;28;20273;-87
2023/01/17 05:23:50;;;;;;;2.17;1.98;;;4.70;1.00;;;;;;5027381;28;20276;-86
2023/01/17 05:26:16;;;;;;;2.50;2.30;;;5.00;1.00;;;;;;5026612;28;20232;-87
2023/01/17 05:28:43;;;;;;;2.20;2.00;;;4.50;1.00;;;;;;5024609;28;20299;-88
2023/01/17 05:31:10;;;;;;;2.55;2.35;;;5.00;99.90;;;;;;5025221;28;20272;-87
2023/01/17 05:33:37;;;;;;;1.85;1.75;;;4.70;1.00;;;;;;5025348;28;20209;-85
2023/01/17 05:36:04;;;;;;;1.25;1.15;;;5.50;1.00;;;;;;5026259;28;20279;-87
2023/01/17 05:38:32;;;;;;;1.98;1.88;;;4.70;1.00;;;;;;5028816;28;20276;-87
2023/01/17 05:40:59;;;;;;;1.98;1.88;;;5.00;1.00;;;;;;5039783;28;20253;-85
2023/01/17 05:43:27;;;;;;;2.17;1.70;;;4.80;99.90;;;;;;5039440;28;20216;-87
2023/01/17 05:45:54;;;;;;;1.63;1.52;;;4.80;99.90;;;;;;5036034;28;20199;-87
2023/01/17 05:48:21;;;;;;;1.60;1.50;;;5.10;99.90;;;;;;5040107;28;20230;-87
2023/01/17 05:50:48;;;;;;;1.70;1.60;;;4.90;1.00;;;;;;5032586;28;20236;-88
2023/01/17 05:53:16;;;;;;;1.85;1.75;;;4.90;1.00;;;;;;5025762;28;20643;-87
2023/01/17 05:55:44;;;;;;;1.80;1.70;;;4.90;1.00;;;;;;5025093;28;20234;-87
2023/01/17 05:58:14;;;;;;;1.90;1.80;;;4.90;1.00;;;;;;5024169;28;20271;-86
2023/01/17 06:00:41;;;;;;;2.70;2.40;;;4.90;1.00;;;;;;5023612;28;20272;-88
2023/01/17 06:03:08;;;;;;;1.70;1.60;;;5.00;1.00;;;;;;5022926;28;20232;-86
2023/01/17 06:05:35;;;;;;;2.50;2.30;;;4.90;99.90;;;;;;5022854;28;20205;-87
2023/01/17 06:08:02;;;;;;;2.28;2.08;;;4.80;1.00;;;;;;5023499;28;20259;-86
2023/01/17 06:10:29;;;;;;;2.47;2.25;;;4.60;1.00;;;;;;5023309;28;20208;-86
2023/01/17 06:13:05;;;;;;;2.33;2.20;;;5.00;1.00;;;;;;5023728;28;20204;-86
2023/01/17 06:15:34;;;;;;;2.60;1.88;;;4.90;1.00;;;;;;5025008;28;20222;-87
2023/01/17 06:18:10;;;;;;;2.53;2.28;;;4.90;1.00;;;;;;5023704;28;20311;-86
2023/01/17 06:20:38;;;;;;;2.08;1.98;;;5.10;31.50;;;;;;5023872;28;20227;-86
2023/01/17 06:23:07;;;;;;;3.45;2.28;;;4.60;1.00;;;;;;5023978;28;20693;-87
2023/01/17 06:25:37;;;;;;;2.70;2.50;;;5.10;1.00;;;;;;5023092;28;20201;-87
2023/01/17 06:28:06;;;;;;;2.20;2.00;;;4.80;1.00;;;;;;5024837;28;20234;-85
2023/01/17 06:30:33;;;;;;;2.00;1.90;;;4.90;1.00;;;;;;5032430;28;20234;-87
2023/01/17 06:33:01;;;;;;;5.43;2.45;;;5.00;1.00;;;;;;5025105;28;20228;-86
2023/01/17 06:35:27;;;;;;;2.00;1.90;;;4.80;99.90;;;;;;5023912;28;20820;-86
2023/01/17 06:37:57;;;;;;;2.40;2.20;;;4.80;1.00;;;;;;5031770;28;20272;-87
2023/01/17 06:40:25;;;;;;;1.98;1.88;;;4.80;99.90;;;;;;5023996;28;20204;-87
2023/01/17 06:42:51;;;;;;;1.90;1.80;;;4.80;99.90;;;;;;5031637;28;20233;-86
2023/01/17 06:45:21;;;;;;;3.22;2.50;;;4.60;99.90;;;;;;5036773;28;20232;-87
2023/01/17 06:47:48;;;;;;;2.25;2.05;;;4.80;1.00;;;;;;5036216;28;20257;-86
2023/01/17 06:50:15;;;;;;;2.55;2.35;;;4.80;1.00;;;;;;5026215;28;20201;-86
2023/01/17 06:52:42;;;;;;;3.22;2.80;;;4.80;1.00;;;;;;5026706;28;20663;-87
2023/01/17 06:55:10;;;;;;;3.20;2.10;;;4.80;1.00;;;;;;5023753;28;20284;-87
2023/01/17 06:57:37;;;;;;;2.45;2.25;;;4.80;1.00;;;;;;5024141;28;20236;-88
2023/01/17 07:00:05;;;;;;;6.57;3.97;;;5.10;99.90;;;;;;5024201;28;20301;-87
2023/01/17 07:02:33;;;;;;;2.80;2.60;;;4.90;1.00;;;;;;5025147;28;20243;-87
2023/01/17 07:05:00;;;;;;;3.00;2.63;;;4.90;1.00;;;;;;5024064;28;20209;-86
2023/01/17 07:07:27;;;;;;;2.38;2.25;;;5.00;1.00;;;;;;5022951;28;20711;-86
2023/01/17 07:09:54;;;;;;;3.05;2.85;;;4.50;1.00;;;;;;5020770;28;20211;-85
2023/01/17 07:12:20;;;;;;;2.00;1.90;;;5.10;1.00;;;;;;5032444;28;20242;-85
2023/01/17 07:14:47;;;;;;;2.05;1.88;;;;;;;;;;5033321;28;20211;-86
2023/01/17 07:17:15;;;;;;;4.55;2.55;;;;;;;;;;5032975;28;20235;-87
2023/01/17 07:19:43;;;;;;;2.38;2.20;;;5.00;1.00;;;;;;5034928;28;20231;-85
2023/01/17 07:22:10;;;;;;;1.90;1.80;;;5.10;1.00;;;;;;5035628;28;20235;-85
2023/01/17 07:24:37;;;;;;;5.30;2.40;;;4.60;1.00;;;;;;5035290;28;20272;-85
2023/01/17 07:27:04;;;;;;;2.40;2.20;;;5.00;1.00;;;;;;5029892;28;20311;-88
2023/01/17 07:29:31;;;;;;;2.35;2.15;;;5.10;1.00;;;;;;5028346;28;20205;-84
2023/01/17 07:31:58;;;;;;;2.60;2.40;;;5.00;1.00;;;;;;5037414;28;20224;-87
2023/01/17 07:34:24;;;;;;;2.30;2.10;;;5.10;1.00;;;;;;5038024;28;20215;-85
2023/01/17 07:36:53;;;;;;;2.90;2.70;;;5.00;99.90;;;;;;5037382;28;20288;-86
2023/01/17 07:39:20;;;;;;;2.40;2.30;;;4.80;99.90;;;;;;5036726;28;20188;-86
2023/01/17 07:41:47;;;;;;;2.30;2.10;;;4.70;1.00;;;;;;5036543;28;20224;-85
2023/01/17 07:44:14;;;;;;;2.42;2.20;;;4.80;99.90;;;;;;5037098;28;20192;-87
2023/01/17 07:46:41;;;;;;;2.13;1.85;;;;;;;;;;5028850;28;20267;-88
2023/01/17 07:49:08;;;;;;;2.65;2.45;;;4.70;99.90;;;;;;5027257;28;20213;-88
2023/01/17 07:51:35;;;;;;;2.90;2.70;;;4.70;1.00;;;;;;5026790;28;20303;-85
2023/01/17 07:54:03;;;;;;;3.22;2.20;;;4.40;99.90;;;;;;5025274;28;20218;-88
2023/01/17 07:56:30;;;;;;;2.60;2.20;;;4.30;1.00;;;;;;5024021;28;20255;-87
2023/01/17 07:58:57;;;;;;;3.75;2.50;;;4.90;99.90;;;;;;5022813;28;20295;-86
2023/01/17 08:01:24;;;;;;;2.45;2.25;;;4.60;99.90;;;;;;5023657;28;20228;-88
2023/01/17 08:03:53;;;;;;;2.35;2.10;;;4.50;99.90;;;;;;5022456;28;20211;-88
2023/01/17 08:06:22;;;;;;;3.97;2.75;;;4.90;99.90;;;;;;5037133;28;20267;-86
2023/01/17 08:08:49;;;;;;;5.50;3.50;;;4.90;99.90;;;;;;5037424;28;20193;-86
2023/01/17 08:11:17;;;;;;;3.92;2.60;;;4.80;1.00;;;;;;5036953;28;20208;-85
2023/01/17 08:13:44;;;;;;;7.72;2.75;;;4.50;99.90;;;;;;5036294;28;20218;-85
2023/01/17 08:16:11;;;;;;;7.25;2.80;;;5.20;99.90;;;;;;5030897;28;20224;-86
2023/01/17 08:18:38;;;;;;;1.83;1.73;;;4.90;1.00;;;;;;5024614;28;20242;-86
2023/01/17 08:21:13;;;;;;;2.30;2.10;;;4.70;36.30;;;;;;5024011;28;20236;-87
2023/01/17 08:23:39;;;;;;;2.70;2.50;;;4.90;1.00;;;;;;5023206;28;20707;-87
2023/01/17 08:26:06;;;;;;;2.72;2.53;;;5.30;1.00;;;;;;5023222;28;20223;-88
2023/01/17 08:28:38;;;;;;;5.85;2.40;;;5.00;99.90;;;;;;5034976;28;20223;-87
2023/01/17 08:31:09;;;;;;;3.05;2.50;;;5.00;99.90;;;;;;5035111;28;20184;-86
2023/01/17 08:33:36;;;;;;;2.22;2.13;;;5.10;1.00;;;;;;5031283;28;20204;-84
2023/01/17 08:36:03;;;;;;;2.25;2.05;;;5.10;99.90;;;;;;5026858;28;20224;-86
2023/01/17 08:38:30;;;;;;;2.75;2.40;;;4.80;99.90;;;;;;5023188;28;20204;-86
2023/01/17 08:41:00;;;;;;;2.33;2.13;;;5.30;1.00;;;;;;5021737;28;20244;-87
2023/01/17 08:43:27;;;;;;;2.40;2.20;;;5.40;99.90;;;;;;5026508;28;20683;-88
2023/01/17 08:45:55;;;;;;;2.97;2.60;;;5.20;1.00;;;;;;5026559;28;20204;-88
2023/01/17 08:48:22;;;;;;;2.92;2.70;;;;;;;;;;5027140;28;20239;-89
2023/01/17 08:50:49;;;;;;;2.67;2.47;;;5.20;1.00;;;;;;5025784;28;20208;-88
2023/01/17 08:53:20;;;;;;;3.28;2.30;;;5.10;99.90;;;;;;5025786;28;20291;-87
2023/01/17 08:55:47;;;;;;;2.53;1.73;;;5.20;1.00;;;;;;5026501;28;20547;-86
2023/01/17 08:58:16;;;;;;;2.83;2.63;;;5.30;1.00;;;;;;5036550;28;20303;-87
2023/01/17 09:00:44;;;;;;;3.70;2.00;;;;;;;;;;5039443;28;20247;-87
2023/01/17 09:03:12;;;;;;;4.40;1.80;;;;;;;;;;5030796;28;20239;-85
2023/01/17 09:05:40;;;;;;;3.78;2.55;;;5.30;10.00;;;;;;5028053;28;20232;-87
2023/01/17 09:08:07;;;;;;;1.90;1.77;;;6.30;1.00;;;;;;5026312;28;20247;-86
2023/01/17 09:10:34;;;;;;;3.35;2.22;;;5.10;1.00;;;;;;5027614;28;20220;-87
2023/01/17 09:13:01;;;;;;;2.63;1.95;;;5.20;1.00;;;;;;5025674;28;20291;-87
2023/01/17 09:15:28;;;;;;;3.55;1.80;;;5.30;1.00;;;;;;5026968;28;20262;-86
2023/01/17 09:17:55;;;;;;;2.53;1.95;;;5.20;1.00;;;;;;5025530;28;20609;-87
2023/01/17 09:20:24;;;;;;;1.92;1.83;;;5.20;99.90;;;;;;5025907;28;20212;-87
2023/01/17 09:22:51;;;;;;;4.35;2.10;;;5.10;1.00;;;;;;5025135;28;20299;-86
2023/01/17 09:25:17;;;;;;;1.80;1.70;;;5.30;99.90;;;;;;5036773;28;20208;-87
2023/01/17 09:27:45;;;;;;;2.58;1.58;;;5.30;99.90;;;;;;5040291;28;20212;-87
2023/01/17 09:30:13;;;;;;;14.45;2.60;;;5.70;1.00;;;;;;5040211;28;20188;-87
2023/01/17 09:32:40;;;;;;;15.02;2.47;;;5.60;1.00;;;;;;5029093;28;20275;-87
2023/01/17 09:35:08;;;;;;;6.10;1.90;;;6.00;99.90;;;;;;5026218;28;20209;-87
2023/01/17 09:37:36;;;;;;;4.72;2.05;;;5.40;99.90;;;;;;5024658;28;20277;-86
2023/01/17 09:40:03;;;;;;;8.63;2.65;;;5.40;99.90;;;;;;5025124;28;20208;-87
2023/01/17 09:42:35;;;;;;;8.98;2.17;;;5.40;99.90;;;;;;5028462;28;20572;-86
2023/01/17 09:45:02;;;;;;;2.00;1.90;;;5.20;1.00;;;;;;5030159;28;20189;-88
2023/01/17 09:47:38;;;;;;;16.95;3.33;;;5.50;99.90;;;;;;5053513;22;20232;-85
2023/01/17 09:50:20;;;;;;;8.65;2.00;;;5.50;99.90;;;;;;5036323;28;20207;-85
2023/01/17 09:52:49;;;;;;;3.30;3.00;;;5.40;99.90;;;;;;5036974;28;20228;-85
2023/01/17 09:55:17;;;;;;;3.22;1.80;;;5.10;1.00;;;;;;5035559;28;20204;-84
2023/01/17 09:57:54;;;;;;;7.70;2.35;;;5.60;1.00;;;;;;5029620;28;20228;-85
2023/01/17 10:00:42;;;;;;;14.75;3.47;;;5.00;91.70;;;;;;5027068;28;20231;-85
2023/01/17 10:03:31;;;;;;;10.07;2.65;;;5.20;99.90;;;;;;5027359;28;20257;-85
2023/01/17 10:06:23;;;;;;;14.35;3.85;;;5.20;99.90;;;;;;5026836;28;20697;-85
2023/01/17 10:09:10;;;;;;;15.70;2.63;;;5.40;99.90;;;;;;5026230;28;20749;-85
2023/01/17 10:11:48;;;;;;;9.70;3.05;;;5.30;99.90;;;;;;5029627;28;20212;-85
2023/01/17 10:14:46;;;;;;;15.40;4.00;;;4.90;99.90;;;;;;5027356;28;20192;-85
2023/01/17 10:17:20;;;;;;;7.35;2.13;;;5.00;38.50;;;;;;5028968;28;20224;-85
2023/01/17 10:20:03;;;;;;;12.18;2.15;;;5.40;1.00;;;;;;5028269;28;20223;-85
2023/01/17 10:22:57;;;;;;;2.50;1.67;;;5.20;1.00;;;;;;5025627;28;20192;-86
2023/01/17 10:25:41;;;;;;;1.40;1.30;;;4.90;1.00;;;;;;5025270;28;20215;-84
2023/01/17 10:28:14;;;;;;;3.25;1.70;;;5.10;99.90;;;;;;5029466;28;20220;-85
2023/01/17 10:30:47;;;;;;;8.15;1.85;;;5.20;99.90;;;;;;5028397;28;20203;-84
2023/01/17 10:33:18;;;;;;;17.73;2.53;;;4.90;1.00;;;;;;5027748;28;20251;-85
2023/01/17 10:35:53;;;;;;;14.57;2.42;;;5.10;1.00;;;;;;5027082;28;20185;-85
2023/01/17 10:38:23;;;;;;;2.22;1.58;;;4.90;99.90;;;;;;5029041;28;20232;-85
2023/01/17 10:40:56;;;;;;;7.80;2.10;;;4.80;1.00;;;;;;5028107;28;20605;-84
2023/01/17 10:43:32;;;;;;;3.63;1.45;;;5.20;99.90;;;;;;5022000;28;20326;-84
2023/01/17 10:45:58;;;;;;;7.85;1.70;;;4.80;35.50;;;;;;5022820;28;20291;-85
2023/01/17 10:48:38;;;;;;;8.55;1.58;;;5.10;99.90;;;;;;5030770;28;20247;-83
2023/01/17 10:51:16;;;;;;;4.57;1.52;;;5.20;79.60;;;;;;5039317;28;20192;-83
2023/01/17 10:53:56;;;;;;;2.42;1.40;;;5.20;25.50;;;;;;5039558;28;20212;-84
2023/01/17 10:56:28;;;;;;;4.30;1.67;;;4.70;1.00;;;;;;5036599;28;20203;-84
2023/01/17 10:59:11;;;;;;;3.42;1.95;;;4.70;26.70;;;;;;5038182;28;20196;-84
2023/01/17 11:01:39;;;;;;;1.52;1.40;;;4.70;99.90;;;;;;5038732;28;20204;-84
2023/01/17 11:04:16;;;;;;;2.97;2.30;;;4.70;99.90;;;;;;5035463;28;20211;-84
2023/01/17 11:06:46;;;;;;;7.57;3.55;;;4.60;1.00;;;;;;5037470;28;20185;-85
2023/01/17 11:09:13;;;;;;;5.43;3.92;;;4.60;1.00;;;;;;5037571;28;20209;-85
2023/01/17 11:11:50;;;;;;;3.35;2.40;;;4.60;1.00;;;;;;5037876;28;20212;-84
2023/01/17 11:14:20;;;;;;;1.85;1.50;;;4.50;1.00;;;;;;5038251;28;20267;-84
2023/01/17 11:17:00;;;;;;;3.15;1.73;;;4.40;99.90;;;;;;5035110;28;20280;-84
2023/01/17 11:19:31;;;;;;;5.90;1.75;;;4.50;1.00;;;;;;5031787;28;20188;-84
2023/01/17 11:22:01;;;;;;;1.40;1.17;;;4.60;99.90;;;;;;5028821;28;20188;-85
2023/01/17 11:24:34;;;;;;;1.52;1.42;;;4.60;1.00;;;;;;5034270;28;20177;-84
2023/01/17 11:27:05;;;;;;;1.42;1.30;;;4.50;99.90;;;;;;5030578;28;20251;-84
2023/01/17 11:29:35;;;;;;;4.50;1.65;;;4.80;99.90;;;;;;5028790;28;20199;-85
2023/01/17 11:32:27;;;;;;;2.85;1.17;;;4.40;99.90;;;;;;5025885;28;20184;-85
2023/01/17 11:35:16;;;;;;;1.30;1.20;;;4.30;14.70;;;;;;5024300;28;20241;-84
2023/01/17 11:37:51;;;;;;;1.77;1.60;;;4.70;1.00;;;;;;5034585;28;20224;-86
2023/01/17 11:40:25;;;;;;;6.80;1.73;;;4.10;1.00;;;;;;5036818;28;20311;-84
2023/01/17 12:07:42;;;;;;;2.22;2.13;;;3.80;99.90;;;;;;4829673;29;20231;-90
2023/01/17 12:10:17;;;;;;;1.90;1.80;;;3.70;99.90;;;;;;4875408;29;20222;-90
2023/01/17 12:15:50;;;;;;;2.30;1.90;;;3.70;99.90;;;;;;5013055;28;20211;-81
2023/01/17 12:18:34;;;;;;;3.05;2.85;;;4.00;99.90;;;;;;5022870;28;20220;-81
2023/01/17 12:21:14;;;;;;;2.33;2.22;;;3.60;99.90;;;;;;5023850;28;20195;-81
2023/01/17 12:24:00;;;;;;;4.10;3.28;;;4.10;99.90;;;;;;5024050;28;20252;-81
2023/01/17 12:26:36;;;;;;;2.65;2.45;;;4.20;99.90;;;;;;5027875;28;20184;-81
2023/01/17 12:29:46;;;;;;;3.00;2.13;;;4.40;99.90;;;;;;5030315;28;20256;-81
2023/01/17 12:32:45;;;;;;;3.08;2.88;;;4.10;99.90;;;;;;5026814;28;20189;-81
2023/01/17 12:35:17;;;;;;;4.63;2.30;;;4.20;35.10;;;;;;5026684;28;20276;-81
2023/01/17 12:37:47;;;;;;;3.60;2.25;;;4.40;99.90;;;;;;5025304;28;20312;-80
2023/01/17 12:40:21;;;;;;;3.88;2.47;;;4.60;1.00;;;;;;5027065;28;20228;-80
2023/01/17 12:42:54;;;;;;;2.80;2.10;;;4.70;99.90;;;;;;5025110;28;20658;-81
2023/01/17 12:45:29;;;;;;;1.95;1.85;;;4.70;99.90;;;;;;5027390;28;20193;-81
2023/01/17 12:48:01;;;;;;;5.97;1.90;;;4.70;99.90;;;;;;5023295;28;20247;-81
2023/01/17 12:50:33;;;;;;;2.60;2.00;;;4.60;99.90;;;;;;5024191;28;20280;-81
2023/01/17 12:53:05;;;;;;;1.75;1.35;;;4.80;1.00;;;;;;5026943;28;20199;-81
2023/01/17 12:55:41;;;;;;;2.15;1.70;;;5.00;99.90;;;;;;5027823;28;20193;-80
2023/01/17 12:58:18;;;;;;;2.53;2.33;;;4.60;17.40;;;;;;5035375;28;20228;-79
2023/01/17 13:00:50;;;;;;;2.17;1.80;;;5.10;13.60;;;;;;5036562;28;20256;-80
2023/01/17 13:03:23;;;;;;;1.55;1.45;;;4.80;99.90;;;;;;5033924;28;20189;-81
2023/01/17 13:05:52;;;;;;;2.17;1.92;;;4.90;99.90;;;;;;5028959;28;20185;-81
2023/01/17 13:08:26;;;;;;;2.92;1.95;;;4.60;99.90;;;;;;5026454;28;20296;-80
2023/01/17 13:10:57;;;;;;;2.45;2.00;;;5.20;1.00;;;;;;5025501;28;20200;-81
2023/01/17 13:13:27;;;;;;;7.38;2.15;;;5.20;99.90;;;;;;5024922;28;20195;-81
2023/01/17 13:15:57;;;;;;;2.08;1.98;;;4.90;1.00;;;;;;5025653;28;20691;-82
2023/01/17 13:18:28;;;;;;;5.90;3.10;;;4.90;99.90;;;;;;5025664;28;20695;-81
2023/01/17 13:21:10;;;;;;;3.20;2.13;;;5.10;1.00;;;;;;5023326;28;20640;-81
2023/01/17 13:23:57;;;;;;;8.65;2.92;;;4.80;99.90;;;;;;5024186;28;20260;-81
2023/01/17 13:26:35;;;;;;;16.83;3.38;;;5.30;1.00;;;;;;5021811;28;20193;-81
2023/01/17 13:29:10;;;;;;;11.60;2.22;;;5.00;93.50;;;;;;5021637;28;20683;-80
2023/01/17 13:31:46;;;;;;;2.50;1.60;;;4.90;99.90;;;;;;5021845;28;20199;-81
2023/01/17 13:34:49;;;;;;;3.03;2.35;;;4.60;1.00;;;;;;5022519;28;20192;-81
2023/01/17 13:37:35;;;;;;;3.47;2.58;;;4.70;1.00;;;;;;5011210;28;20220;-82
2023/01/17 13:40:24;;;;;;;3.60;1.90;;;4.70;1.00;;;;;;5021665;28;20284;-82
2023/01/17 13:42:55;;;;;;;34.05;4.47;;;5.00;4.60;;;;;;5023614;28;20227;-81
2023/01/17 13:45:26;;;;;;;3.63;2.25;;;5.10;1.00;;;;;;5023475;28;20647;-81
2023/01/17 13:47:53;;;;;;;3.15;2.72;;;4.60;1.00;;;;;;5024482;28;20638;-81
2023/01/17 13:50:49;;;;;;;6.10;2.13;;;5.70;1.00;;;;;;5023635;28;20264;-81
2023/01/17 13:53:56;;;;;;;1.80;1.70;;;4.60;99.90;;;;;;5015916;28;20559;-81
2023/01/17 13:56:31;;;;;;;6.55;2.10;;;4.50;99.90;;;;;;5022307;28;20197;-82
2023/01/17 13:59:04;;;;;;;4.40;4.10;;;5.00;99.90;;;;;;5022380;28;20213;-81
2023/01/17 14:01:52;;;;;;;4.47;2.20;;;4.60;1.00;;;;;;5022449;28;20200;-82
2023/01/17 14:04:19;;;;;;;9.73;2.40;;;4.70;99.90;;;;;;5023710;28;20228;-81
2023/01/17 14:06:48;;;;;;;10.45;3.00;;;4.90;99.90;;;;;;5024539;28;20296;-81
2023/01/17 14:09:25;;;;;;;2.97;2.40;;;5.10;99.90;;;;;;5024466;28;20232;-81
2023/01/17 14:12:05;;;;;;;5.88;2.00;;;4.80;99.40;;;;;;5030058;28;20196;-80
2023/01/17 14:14:55;;;;;;;2.22;2.08;;;4.60;1.00;;;;;;5026816;28;20256;-81
2023/01/17 14:17:58;;;;;;;3.70;2.15;;;4.60;99.90;;;;;;5025195;28;20225;-81
2023/01/17 14:20:45;;;;;;;3.28;1.65;;;4.80;99.90;;;;;;5030755;28;20641;-81
2023/01/17 14:23:36;;;;;;;3.15;1.85;;;4.50;1.00;;;;;;5029620;28;20224;-81
2023/01/17 14:26:35;;;;;;;23.08;3.88;;;4.70;1.00;;;;;;5024600;28;20185;-81
2023/01/17 14:29:35;;;;;;;16.90;4.80;;;5.20;1.00;;;;;;5021840;28;20219;-81
2023/01/17 14:32:05;;;;;;;12.32;4.22;;;4.60;1.00;;;;;;5021576;28;20628;-81
2023/01/17 14:34:34;;;;;;;4.93;3.00;;;4.60;99.90;;;;;;5021534;28;20666;-82
2023/01/17 14:37:06;;;;;;;9.45;4.30;;;4.80;1.00;;;;;;5021210;28;20228;-81
2023/01/17 14:39:43;;;;;;;13.77;4.35;;;4.90;1.00;;;;;;5021215;28;20201;-82
2023/01/17 14:42:13;;;;;;;7.32;3.00;;;4.70;99.90;;;;;;5022243;28;20189;-82
2023/01/17 14:44:40;;;;;;;6.80;4.13;;;4.50;1.00;;;;;;5022894;28;20571;-81
2023/01/17 14:47:10;;;;;;;11.05;5.15;;;5.00;1.00;;;;;;5021160;28;20221;-81
2023/01/17 14:49:39;;;;;;;5.40;3.90;;;4.70;1.00;;;;;;5021539;28;20315;-82
2023/01/17 14:52:09;;;;;;;10.02;4.10;;;4.60;1.00;;;;;;5021185;28;20201;-81
2023/01/17 14:54:36;;;;;;;8.07;4.65;;;4.80;1.00;;;;;;5021392;28;20248;-82
2023/01/17 14:57:22;;;;;;;6.97;3.85;;;5.50;1.00;;;;;;5024182;28;20247;-82
2023/01/17 14:59:49;;;;;;;5.15;3.50;;;4.60;1.00;;;;;;5024045;28;20223;-82
2023/01/17 15:02:17;;;;;;;6.72;3.17;;;4.90;1.00;;;;;;5022386;28;20618;-82
2023/01/17 15:04:54;;;;;;;7.63;3.35;;;5.20;1.00;;;;;;5021122;28;20200;-82
2023/01/17 15:07:21;;;;;;;28.40;25.25;;;5.10;99.90;;;;;;5021689;28;20230;-83
2023/01/17 15:09:48;;;;;;;6.55;3.72;;;4.70;1.00;;;;;;5020975;28;20275;-83
2023/01/17 15:12:15;;;;;;;3.65;2.70;;;;;;;;;;5021773;28;20674;-82
2023/01/17 15:14:45;;;;;;;6.65;3.13;;;4.10;99.90;;;;;;5020542;28;20211;-82